Time;durP1;ratioP1;P1;durP2;ratioP2;P2;SDS_P1;SDS_P2;PMS_P1;PMS_P2;Temp;Humidity;BMP_temperature;BMP_pressure;BME280_temperature;BME280_humidity;BME280_pressure;Samples;Min_cycle;Max_cycle;Signal;HPM_P1;HPM_P2
2022/03/29 00:01:00;;;;;;;55.17;33.10;;;;;;;6.20;100.00;101892.13;5056639;28;20146;-77
2022/03/29 00:03:26;;;;;;;57.42;33.28;;;;;;;6.22;100.00;101892.88;5056112;28;20053;-77
2022/03/29 00:05:52;;;;;;;53.92;31.67;;;;;;;6.21;100.00;101896.47;5053683;28;20052;-78
2022/03/29 00:08:18;;;;;;;53.50;32.05;;;;;;;6.22;100.00;101887.59;5072472;28;20032;-77
2022/03/29 00:10:44;;;;;;;57.83;33.53;;;;;;;6.23;100.00;101889.31;5071945;28;20024;-77
2022/03/29 00:13:10;;;;;;;54.90;31.98;;;;;;;6.22;100.00;101887.59;5072102;28;20345;-78
2022/03/29 00:15:36;;;;;;;54.67;31.45;;;;;;;6.22;100.00;101878.81;5071837;28;20028;-77
2022/03/29 00:18:02;;;;;;;51.45;32.15;;;;;;;6.22;100.00;101879.66;5071816;28;20036;-77
2022/03/29 00:20:27;;;;;;;52.45;31.33;;;;;;;6.23;100.00;101873.44;5072113;28;20048;-76
2022/03/29 00:22:53;;;;;;;56.80;31.17;;;;;;;6.23;100.00;101862.88;5071956;28;20404;-77
2022/03/29 00:25:18;;;;;;;59.75;32.75;;;;;;;6.24;100.00;101863.72;5072026;28;20040;-77
2022/03/29 00:27:44;;;;;;;60.95;31.80;;;;;;;6.26;100.00;101859.22;5053577;28;20039;-77
2022/03/29 00:30:11;;;;;;;51.50;31.40;;;;;;;6.26;100.00;101860.06;5071363;28;20457;-76
2022/03/29 00:32:39;;;;;;;51.10;31.85;;;;;;;6.28;100.00;101852.88;5071678;28;20040;-79
2022/03/29 00:35:06;;;;;;;52.28;31.80;;;;;;;6.29;100.00;101845.84;5072007;28;20215;-77
2022/03/29 00:37:31;;;;;;;57.10;31.88;;;;;;;6.31;100.00;101854.50;5071814;28;20032;-77
2022/03/29 00:39:56;;;;;;;54.78;31.45;;;;;;;6.33;100.00;101844.72;5071658;28;20105;-77
2022/03/29 00:42:22;;;;;;;52.08;31.15;;;;;;;6.33;100.00;101850.00;5053477;28;20495;-76
2022/03/29 00:44:47;;;;;;;53.45;30.25;;;;;;;6.33;100.00;101848.22;5071684;28;20033;-77
2022/03/29 00:47:13;;;;;;;52.55;30.42;;;;;;;6.34;100.00;101843.75;5071582;28;20028;-76
2022/03/29 00:49:38;;;;;;;51.08;30.15;;;;;;;6.35;100.00;101845.47;5071231;28;20039;-78
2022/03/29 00:52:04;;;;;;;49.47;29.73;;;;;;;6.35;100.00;101845.47;5071440;28;20182;-76
2022/03/29 00:54:33;;;;;;;45.78;28.25;;;;;;;6.34;100.00;101842.00;5053538;28;20112;-76
2022/03/29 00:56:59;;;;;;;45.75;28.40;;;;;;;6.29;100.00;101841.38;5071342;28;20094;-77
2022/03/29 00:59:27;;;;;;;43.47;27.13;;;;;;;6.30;100.00;101840.47;5071592;28;20037;-76
2022/03/29 01:01:53;;;;;;;46.45;26.67;;;;;;;6.29;100.00;101840.53;5053329;28;20098;-77
2022/03/29 01:04:20;;;;;;;47.28;29.63;;;;;;;6.28;100.00;101829.09;5071112;28;20467;-77
2022/03/29 01:06:46;;;;;;;48.63;28.27;;;;;;;6.28;100.00;101831.75;5071515;28;20139;-77
2022/03/29 01:09:11;;;;;;;45.00;27.98;;;;;;;6.27;100.00;101827.41;5070749;28;20417;-77
2022/03/29 01:11:38;;;;;;;47.53;28.50;;;;;;;6.25;100.00;101825.78;5053052;28;20033;-77
2022/03/29 01:14:04;;;;;;;45.08;27.88;;;;;;;6.22;100.00;101823.31;5070898;28;20036;-77
2022/03/29 01:19:25;;;;;;;44.22;26.33;;;;;;;6.20;100.00;101818.13;5026407;28;20048;-76
2022/03/29 01:22:01;;;;;;;46.47;27.45;;;;;;;6.20;100.00;101819.94;5050730;28;20044;-76
2022/03/29 01:24:27;;;;;;;44.38;26.45;;;;;;;6.20;100.00;101818.13;5050845;28;20075;-76
2022/03/29 01:26:57;;;;;;;46.08;26.65;;;;;;;6.19;100.00;101816.41;5051054;28;20056;-76
2022/03/29 01:29:23;;;;;;;42.80;25.90;;;;;;;6.19;100.00;101813.78;5050625;28;20033;-76
2022/03/29 01:31:50;;;;;;;44.53;26.63;;;;;;;6.19;100.00;101813.78;5050409;28;20028;-77
2022/03/29 01:34:17;;;;;;;41.63;26.58;;;;;;;6.20;100.00;101807.56;5050724;28;20126;-77
2022/03/29 01:36:43;;;;;;;45.17;27.58;;;;;;;6.21;100.00;101806.63;5050546;28;20025;-79
2022/03/29 01:39:08;;;;;;;43.08;25.77;;;;;;;6.20;100.00;101806.72;5050945;28;20099;-77
2022/03/29 01:41:34;;;;;;;40.75;26.92;;;;;;;6.20;100.00;101806.72;5050422;28;20033;-78
2022/03/29 01:43:59;;;;;;;41.78;25.98;;;;;;;6.16;100.00;101795.44;5050355;28;20186;-77
2022/03/29 01:46:25;;;;;;;45.58;26.20;;;;;;;6.15;99.92;101791.09;5032586;28;20103;-77
2022/03/29 01:48:51;;;;;;;39.97;25.50;;;;;;;6.15;100.00;101796.38;5050385;28;20437;-77
2022/03/29 01:51:16;;;;;;;42.05;25.77;;;;;;;6.13;100.00;101791.19;5050443;28;20033;-76
2022/03/29 01:53:42;;;;;;;40.17;24.63;;;;;;;6.10;99.53;101801.09;5050858;28;20033;-77
2022/03/29 01:56:07;;;;;;;38.05;23.85;;;;;;;6.06;99.49;101789.84;5052615;28;20411;-77
2022/03/29 01:58:33;;;;;;;38.22;24.08;;;;;;;6.04;99.37;101785.56;5053209;28;20430;-77
2022/03/29 02:00:59;;;;;;;37.42;23.83;;;;;;;6.02;99.54;101779.50;5052747;28;20492;-77
2022/03/29 02:03:25;;;;;;;42.83;26.27;;;;;;;6.01;99.63;101770.75;5053162;28;20029;-78
2022/03/29 02:05:50;;;;;;;40.78;25.80;;;;;;;5.99;99.89;101773.47;5052506;28;20110;-76
2022/03/29 02:08:19;;;;;;;42.00;26.10;;;;;;;5.97;100.00;101770.06;5053403;28;20420;-77
2022/03/29 02:10:45;;;;;;;41.05;26.92;;;;;;;5.99;100.00;101773.47;5053349;28;20063;-79
2022/03/29 02:13:10;;;;;;;41.17;25.73;;;;;;;5.99;100.00;101765.53;5053442;28;20068;-77
2022/03/29 02:15:37;;;;;;;41.95;27.05;;;;;;;5.97;99.96;101761.28;5052613;28;20071;-79
2022/03/29 02:18:03;;;;;;;42.72;27.02;;;;;;;5.95;100.00;101757.84;5047069;28;20052;-78
2022/03/29 02:20:28;;;;;;;41.20;25.55;;;;;;;5.96;100.00;101759.56;5072675;28;20040;-79
2022/03/29 02:22:54;;;;;;;41.42;25.85;;;;;;;5.96;100.00;101752.47;5072264;28;20039;-76
2022/03/29 02:25:21;;;;;;;44.30;26.45;;;;;;;5.94;100.00;101746.44;5072773;28;20024;-79
2022/03/29 02:27:46;;;;;;;42.30;26.50;;;;;;;5.96;100.00;101749.84;5072478;28;20044;-77
2022/03/29 02:30:16;;;;;;;39.80;26.13;;;;;;;5.95;100.00;101747.28;5072253;28;20025;-77
2022/03/29 02:32:42;;;;;;;40.13;25.10;;;;;;;5.94;100.00;101746.44;5072529;28;20089;-77
2022/03/29 02:35:08;;;;;;;37.85;24.50;;;;;;;5.94;100.00;101746.44;5072525;28;20028;-77
2022/03/29 02:37:33;;;;;;;37.63;24.55;;;;;;;5.93;100.00;101741.25;5072562;28;20450;-76
2022/03/29 02:39:59;;;;;;;39.33;24.90;;;;;;;5.91;100.00;101730.78;5092466;28;20043;-76
2022/03/29 02:42:25;;;;;;;39.17;24.30;;;;;;;5.90;100.00;101730.84;5092477;28;20032;-77
2022/03/29 02:44:50;;;;;;;37.03;23.80;;;;;;;5.88;100.00;101730.94;5074251;28;20032;-77
2022/03/29 02:47:15;;;;;;;37.53;23.98;;;;;;;5.86;100.00;101721.41;5092922;28;20035;-77
2022/03/29 02:49:41;;;;;;;37.40;23.52;;;;;;;5.83;100.00;101720.63;5092696;28;20405;-78
2022/03/29 02:52:06;;;;;;;44.83;25.85;;;;;;;5.79;100.00;101713.81;5093246;28;20036;-78
2022/03/29 02:54:32;;;;;;;41.70;25.67;;;;;;;5.77;100.00;101714.84;5093114;28;20418;-78
2022/03/29 02:56:58;;;;;;;39.63;24.50;;;;;;;5.77;100.00;101717.47;5092391;28;20035;-78
2022/03/29 02:59:23;;;;;;;43.78;25.95;;;;;;;5.77;100.00;101706.91;5074614;28;20124;-78
2022/03/29 03:01:48;;;;;;;39.33;25.52;;;;;;;5.77;100.00;101709.56;5093151;28;20028;-78
2022/03/29 03:04:14;;;;;;;41.88;25.85;;;;;;;5.77;100.00;101707.75;5093636;28;20020;-78
2022/03/29 03:06:43;;;;;;;43.83;24.95;;;;;;;5.77;100.00;101704.28;5094345;28;20046;-77
2022/03/29 03:09:09;;;;;;;40.33;25.55;;;;;;;5.76;100.00;101695.50;5092514;28;20053;-78
2022/03/29 03:11:36;;;;;;;40.33;25.70;;;;;;;5.78;100.00;101698.91;5092492;28;20028;-78
2022/03/29 03:14:01;;;;;;;46.90;26.13;;;;;;;5.78;100.00;101693.63;5092356;28;20035;-78
2022/03/29 03:16:27;;;;;;;41.60;25.95;;;;;;;5.79;100.00;101687.41;5092470;28;20028;-78
2022/03/29 03:18:52;;;;;;;41.75;25.38;;;;;;;5.78;100.00;101690.16;5074628;28;20136;-78
2022/03/29 03:21:17;;;;;;;42.45;25.75;;;;;;;5.76;100.00;101687.59;5092346;28;20040;-76
2022/03/29 03:23:43;;;;;;;43.65;26.98;;;;;;;5.76;100.00;101681.44;5092180;28;20472;-77
2022/03/29 03:26:08;;;;;;;42.60;26.38;;;;;;;5.72;100.00;101688.69;5092252;28;20028;-77
2022/03/29 03:28:34;;;;;;;48.33;28.13;;;;;;;5.71;100.00;101683.50;5092165;28;20056;-77
2022/03/29 03:31:00;;;;;;;47.63;27.50;;;;;;;5.69;100.00;101670.38;5092658;28;20028;-78
2022/03/29 03:33:25;;;;;;;46.83;28.13;;;;;;;5.70;100.00;101665.94;5073933;28;20032;-79
2022/03/29 03:35:51;;;;;;;49.10;28.00;;;;;;;5.72;100.00;101671.97;5091787;28;20399;-78
2022/03/29 03:38:16;;;;;;;47.95;28.38;;;;;;;5.71;100.00;101663.22;5092062;28;20040;-78
2022/03/29 03:40:41;;;;;;;47.92;29.20;;;;;;;5.73;100.00;101664.00;5092078;28;20107;-78
2022/03/29 03:43:07;;;;;;;49.22;28.75;;;;;;;5.74;100.00;101664.84;5095347;28;20035;-78
2022/03/29 03:45:32;;;;;;;56.42;31.85;;;;;;;5.73;100.00;101663.13;5095417;28;20036;-77
2022/03/29 03:47:58;;;;;;;53.45;30.02;;;;;;;5.73;100.00;101658.72;5095926;28;20032;-76
2022/03/29 03:50:23;;;;;;;56.08;31.45;;;;;;;5.73;100.00;101652.56;5077692;28;20032;-77
2022/03/29 03:52:53;;;;;;;53.00;30.33;;;;;;;5.72;100.00;101649.09;5077444;28;20032;-78
2022/03/29 03:55:19;;;;;;;56.30;30.65;;;;;;;5.71;100.00;101652.66;5095283;28;20058;-77
2022/03/29 03:57:44;;;;;;;57.13;29.52;;;;;;;5.70;100.00;101645.66;5095298;28;20449;-77
2022/03/29 04:00:11;;;;;;;53.67;29.63;;;;;;;5.68;100.00;101644.06;5077330;28;20059;-77
2022/03/29 04:02:37;;;;;;;60.25;32.53;;;;;;;5.67;100.00;101647.63;5095429;28;20043;-77
2022/03/29 04:05:02;;;;;;;58.42;33.08;;;;;;;5.68;100.00;101647.56;5095217;28;20107;-77
2022/03/29 04:07:28;;;;;;;63.20;31.58;;;;;;;5.70;100.00;101648.31;5095417;28;20036;-77
2022/03/29 04:09:54;;;;;;;57.30;33.22;;;;;;;5.71;100.00;101633.34;5094982;28;20040;-77
2022/03/29 04:12:20;;;;;;;60.63;32.30;;;;;;;5.70;100.00;101628.97;5095120;28;20075;-76
2022/03/29 04:14:45;;;;;;;61.55;34.33;;;;;;;5.69;100.00;101620.22;5095003;28;20028;-77
2022/03/29 04:17:11;;;;;;;65.82;34.50;;;;;;;5.68;100.00;101626.44;5094814;28;20056;-77
2022/03/29 04:19:37;;;;;;;64.93;33.88;;;;;;;5.69;100.00;101624.63;5095086;28;20126;-77
2022/03/29 04:22:03;;;;;;;68.97;35.08;;;;;;;5.69;100.00;101624.63;5095113;28;20429;-78
2022/03/29 04:24:28;;;;;;;65.40;34.13;;;;;;;5.67;100.00;101618.59;5094950;28;20032;-77
2022/03/29 04:26:54;;;;;;;63.60;34.67;;;;;;;5.65;100.00;101619.53;5094804;28;20433;-78
2022/03/29 04:29:20;;;;;;;66.93;34.75;;;;;;;5.65;100.00;101608.97;5094741;28;20508;-78
2022/03/29 04:31:45;;;;;;;65.18;33.47;;;;;;;5.64;100.00;101611.69;5095140;28;20051;-77
2022/03/29 04:34:10;;;;;;;62.17;32.95;;;;;;;5.63;100.00;101615.28;5094840;28;20059;-76
2022/03/29 04:36:37;;;;;;;66.28;35.05;;;;;;;5.61;100.00;101618.03;5095047;28;20034;-77
2022/03/29 04:39:02;;;;;;;60.13;32.03;;;;;;;5.60;100.00;101620.75;5094861;28;20078;-78
2022/03/29 04:41:28;;;;;;;62.40;33.22;;;;;;;5.59;100.00;101611.97;5094885;28;20028;-78
2022/03/29 04:43:53;;;;;;;60.20;31.90;;;;;;;5.58;100.00;101614.69;5060882;28;20127;-78
2022/03/29 04:46:19;;;;;;;62.90;32.75;;;;;;;5.57;100.00;101612.97;5095150;28;20079;-78
2022/03/29 04:48:44;;;;;;;62.67;32.53;;;;;;;5.53;100.00;101607.03;5076172;28;20039;-78
2022/03/29 04:51:11;;;;;;;65.13;32.42;;;;;;;5.50;100.00;101615.13;5076501;28;20083;-78
2022/03/29 04:53:36;;;;;;;59.75;31.95;;;;;;;5.48;100.00;101609.09;5076754;28;20028;-78
2022/03/29 04:56:01;;;;;;;61.50;33.33;;;;;;;5.46;100.00;101610.94;5095171;28;20033;-78
2022/03/29 04:58:27;;;;;;;67.05;33.70;;;;;;;5.44;100.00;101616.31;5094391;28;20063;-78
2022/03/29 05:00:53;;;;;;;67.50;30.85;;;;;;;5.40;100.00;101606.03;5095587;28;20577;-78
2022/03/29 05:03:18;;;;;;;68.82;32.50;;;;;;;5.39;100.00;101609.59;5094926;28;20032;-78
2022/03/29 05:05:44;;;;;;;65.45;32.80;;;;;;;5.34;100.00;101603.75;5076430;28;20119;-78
2022/03/29 05:08:09;;;;;;;67.18;33.65;;;;;;;5.34;100.00;101611.66;5096866;28;20032;-78
2022/03/29 05:10:35;;;;;;;70.82;34.45;;;;;;;5.34;100.00;101607.22;5094528;28;20040;-79
2022/03/29 05:13:00;;;;;;;66.65;33.58;;;;;;;5.33;100.00;101596.75;5093902;28;20150;-78
2022/03/29 05:15:26;;;;;;;66.57;33.38;;;;;;;5.29;100.00;101607.47;5075809;28;20064;-78
2022/03/29 05:17:51;;;;;;;67.80;34.50;;;;;;;5.30;100.00;101597.78;5093677;28;20096;-78
2022/03/29 05:20:17;;;;;;;68.93;35.13;;;;;;;5.29;100.00;101601.38;5075670;28;20032;-78
2022/03/29 05:22:53;;;;;;;69.15;34.92;;;;;;;5.28;100.00;101595.25;5093937;28;20123;-77
2022/03/29 05:25:21;;;;;;;71.38;35.20;;;;;;;5.27;100.00;101605.88;5093779;28;20039;-77
2022/03/29 05:27:47;;;;;;;68.88;35.20;;;;;;;5.24;100.00;101604.25;5094561;28;20121;-77
2022/03/29 05:30:14;;;;;;;61.70;33.92;;;;;;;5.25;100.00;101600.66;5093786;28;20036;-78
2022/03/29 05:32:39;;;;;;;61.35;32.67;;;;;;;5.24;100.00;101598.97;5093507;28;20372;-75
2022/03/29 05:35:09;;;;;;;58.95;31.45;;;;;;;5.24;100.00;101601.63;5093503;28;20028;-79
2022/03/29 05:37:36;;;;;;;53.10;30.10;;;;;;;5.21;100.00;101604.44;5093990;28;20024;-79
2022/03/29 05:40:03;;;;;;;52.53;29.08;;;;;;;5.20;100.00;101609.81;5075799;28;20430;-79
2022/03/29 05:42:28;;;;;;;56.28;29.58;;;;;;;5.22;100.00;101606.13;5093250;28;20081;-80
2022/03/29 05:44:54;;;;;;;53.95;29.33;;;;;;;5.23;100.00;101604.34;5093618;28;20028;-79
2022/03/29 05:50:04;;;;;;;51.90;28.13;;;;;;;5.25;100.00;101611.22;5093327;28;20388;-80
2022/03/29 05:52:29;;;;;;;51.17;28.38;;;;;;;5.25;100.00;101605.09;5093499;28;20024;-80
2022/03/29 05:54:56;;;;;;;52.95;29.35;;;;;;;5.24;100.00;101606.03;5093410;28;20039;-81
2022/03/29 05:57:22;;;;;;;53.65;29.48;;;;;;;5.27;100.00;101603.25;5075782;28;20514;-80
2022/03/29 05:59:48;;;;;;;52.53;28.90;;;;;;;5.28;100.00;101604.94;5093156;28;20036;-79
2022/03/29 06:02:13;;;;;;;55.70;31.00;;;;;;;5.30;100.00;101611.84;5093557;28;20381;-78
2022/03/29 06:04:41;;;;;;;57.63;30.08;;;;;;;5.32;100.00;101605.63;5093451;28;20028;-78
2022/03/29 06:07:09;;;;;;;57.83;28.65;;;;;;;5.35;100.00;101601.00;5093108;28;20077;-78
2022/03/29 06:09:36;;;;;;;52.50;29.73;;;;;;;5.37;100.00;101595.66;5075358;28;20089;-78
2022/03/29 06:12:03;;;;;;;54.33;28.67;;;;;;;5.37;100.00;101599.13;5093446;28;20028;-78
2022/03/29 06:14:28;;;;;;;54.80;28.08;;;;;;;5.41;100.00;101602.47;5093385;28;20024;-78
2022/03/29 06:16:55;;;;;;;49.35;26.85;;;;;;;5.40;100.00;101598.94;5093304;28;20055;-77
2022/03/29 06:19:21;;;;;;;50.75;28.17;;;;;;;5.38;100.00;101600.84;5092990;28;20382;-78
2022/03/29 06:21:46;;;;;;;47.05;26.20;;;;;;;5.36;100.00;101597.44;5093480;28;20040;-77
2022/03/29 06:24:11;;;;;;;47.10;25.95;;;;;;;5.34;100.00;101599.31;5092818;28;20122;-78
2022/03/29 06:26:39;;;;;;;50.40;28.08;;;;;;;5.33;100.00;101594.97;5092541;28;20028;-78
2022/03/29 06:29:06;;;;;;;55.20;27.95;;;;;;;5.34;100.00;101594.03;5092937;28;20301;-78
2022/03/29 06:31:31;;;;;;;45.58;26.30;;;;;;;5.35;100.00;101605.44;5092243;28;20089;-78
2022/03/29 06:33:57;;;;;;;46.83;25.80;;;;;;;5.35;100.00;101600.16;5092584;28;20111;-78
2022/03/29 06:36:23;;;;;;;47.15;26.30;;;;;;;5.37;100.00;101603.56;5074232;28;20039;-78
2022/03/29 06:38:49;;;;;;;48.70;26.50;;;;;;;5.34;100.00;101609.03;5092417;28;20039;-78
2022/03/29 06:41:15;;;;;;;53.72;27.35;;;;;;;5.33;100.00;101607.31;5092539;28;20036;-78
2022/03/29 06:43:41;;;;;;;54.30;27.98;;;;;;;5.30;100.00;101603.91;5092633;28;20065;-78
2022/03/29 06:46:08;;;;;;;51.90;28.13;;;;;;;5.33;100.00;101613.47;5092383;28;20064;-78
2022/03/29 06:48:34;;;;;;;52.28;27.55;;;;;;;5.34;100.00;101606.38;5092146;28;20089;-78
2022/03/29 06:51:00;;;;;;;62.30;27.98;;;;;;;5.35;100.00;101600.16;5092462;28;20025;-78
2022/03/29 06:53:25;;;;;;;58.20;28.95;;;;;;;5.39;100.00;101599.03;5092876;28;20467;-77
2022/03/29 06:55:51;;;;;;;54.42;30.60;;;;;;;5.43;100.00;101600.56;5092756;28;20040;-78
2022/03/29 06:58:18;;;;;;;52.65;28.25;;;;;;;5.50;100.00;101603.72;5092466;28;20032;-78
2022/03/29 07:00:43;;;;;;;56.83;28.50;;;;;;;5.55;100.00;101601.66;5092344;28;20036;-77
2022/03/29 07:03:10;;;;;;;50.63;28.17;;;;;;;5.58;100.00;101598.84;5092683;28;20491;-78
2022/03/29 07:05:38;;;;;;;52.38;28.83;;;;;;;5.62;100.00;101605.66;5092070;28;20043;-78
2022/03/29 07:08:05;;;;;;;66.00;28.73;;;;;;;5.68;100.00;101609.75;5092538;28;20448;-77
2022/03/29 07:13:15;;;;;;;52.05;27.27;;;;;;;5.72;99.23;101608.59;5092076;28;20039;-79
2022/03/29 07:15:40;;;;;;;50.28;26.85;;;;;;;5.72;98.26;101606.84;5092045;28;20028;-77
2022/03/29 07:18:06;;;;;;;45.92;25.50;;;;;;;5.67;97.31;101608.88;5095524;28;20481;-78
2022/03/29 07:20:31;;;;;;;43.80;26.00;;;;;;;5.71;97.19;101604.28;5078117;28;20475;-77
2022/03/29 07:22:57;;;;;;;45.72;26.45;;;;;;;5.70;97.13;101606.06;5078350;28;20028;-76
2022/03/29 07:25:25;;;;;;;47.35;24.98;;;;;;;5.76;97.35;101599.56;5061125;28;20027;-77
2022/03/29 07:27:53;;;;;;;45.10;26.00;;;;;;;5.81;97.10;101601.00;5095893;28;20039;-78
2022/03/29 07:30:19;;;;;;;51.30;25.48;;;;;;;5.89;96.77;101605.00;5095980;28;20418;-78
2022/03/29 07:32:52;;;;;;;48.65;26.60;;;;;;;5.96;96.10;101601.06;5095849;28;20031;-77
2022/03/29 07:35:20;;;;;;;45.40;26.50;;;;;;;6.04;95.49;101611.22;5096152;28;20060;-79
2022/03/29 07:37:46;;;;;;;48.75;25.92;;;;;;;6.09;94.81;101596.78;5097053;28;20111;-78
2022/03/29 07:40:14;;;;;;;44.22;25.20;;;;;;;6.11;93.87;101592.25;5096379;28;20039;-77
2022/03/29 07:42:40;;;;;;;46.10;25.08;;;;;;;6.21;93.74;101603.13;5096214;28;20032;-77
2022/03/29 07:45:11;;;;;;;45.17;26.23;;;;;;;6.28;92.37;101600.97;5095963;28;20112;-78
2022/03/29 07:47:37;;;;;;;42.83;25.58;;;;;;;6.34;92.32;101603.22;5079119;28;20032;-77
2022/03/29 07:50:06;;;;;;;42.85;24.30;;;;;;;6.41;92.18;101598.44;5097426;28;20036;-78
2022/03/29 07:52:34;;;;;;;41.00;24.77;;;;;;;6.35;91.64;101600.50;5077857;28;20036;-78
2022/03/29 07:55:00;;;;;;;42.08;24.85;;;;;;;6.44;91.13;101600.88;5095638;28;20039;-79
2022/03/29 07:57:26;;;;;;;43.20;24.20;;;;;;;6.55;91.23;101595.78;5095585;28;20372;-78
2022/03/29 07:59:51;;;;;;;35.65;23.17;;;;;;;6.67;90.74;101588.88;5095120;28;20043;-77
2022/03/29 08:02:17;;;;;;;43.40;24.60;;;;;;;6.79;89.62;101596.06;5095375;28;20534;-77
2022/03/29 08:04:42;;;;;;;38.42;22.83;;;;;;;6.94;89.33;101598.69;5095120;28;20043;-76
2022/03/29 08:07:08;;;;;;;35.55;22.30;;;;;;;6.99;88.10;101589.50;5095137;28;20034;-77
2022/03/29 08:09:34;;;;;;;38.42;23.33;;;;;;;7.13;88.23;101599.22;5094949;28;20150;-77
2022/03/29 08:11:59;;;;;;;37.25;22.92;;;;;;;7.28;87.94;101585.94;5096060;28;20059;-76
2022/03/29 08:14:27;;;;;;;37.15;22.80;;;;;;;7.46;86.62;101583.91;5095472;28;20046;-77
2022/03/29 08:16:55;;;;;;;39.88;23.63;;;;;;;7.63;86.21;101588.06;5095006;28;20044;-79
2022/03/29 08:19:21;;;;;;;34.25;23.40;;;;;;;7.69;84.67;101590.34;5096012;28;20032;-78
2022/03/29 08:21:49;;;;;;;38.75;23.13;;;;;;;7.76;83.37;101597.78;5060532;28;20082;-77
2022/03/29 08:24:23;;;;;;;42.60;23.95;;;;;;;7.74;83.58;101607.59;5095006;28;20024;-77
2022/03/29 08:26:51;;;;;;;41.53;23.02;;;;;;;7.67;82.94;101603.66;5094515;28;20070;-78
2022/03/29 08:29:17;;;;;;;37.55;23.92;;;;;;;7.64;83.62;101595.91;5094562;28;20116;-77
2022/03/29 08:31:44;;;;;;;38.42;23.17;;;;;;;7.65;83.14;101596.78;5094785;28;20075;-77
2022/03/29 08:34:11;;;;;;;37.42;22.83;;;;;;;7.62;83.45;101594.34;5094556;28;20388;-77
2022/03/29 08:36:38;;;;;;;39.58;24.45;;;;;;;7.69;83.77;101593.81;5094729;28;20040;-78
2022/03/29 08:39:04;;;;;;;36.97;22.38;;;;;;;7.81;83.09;101593.94;5094627;28;20449;-77
2022/03/29 08:41:43;;;;;;;39.45;23.10;;;;;;;7.81;82.85;101594.81;5094721;28;20059;-77
2022/03/29 08:44:09;;;;;;;37.58;22.63;;;;;;;7.64;82.79;101590.63;5094493;28;20031;-77
2022/03/29 08:46:38;;;;;;;42.20;23.15;;;;;;;7.64;83.57;101590.63;5094717;28;20102;-77
2022/03/29 08:49:07;;;;;;;38.45;23.23;;;;;;;7.68;83.60;101586.81;5094573;28;20093;-79
2022/03/29 08:51:34;;;;;;;39.95;23.88;;;;;;;7.68;83.79;101586.81;5094716;28;20054;-77
2022/03/29 08:54:00;;;;;;;38.83;23.10;;;;;;;7.76;83.84;101579.22;5094789;28;20182;-77
2022/03/29 08:56:25;;;;;;;39.35;23.17;;;;;;;7.83;83.47;101574.34;5076851;28;20512;-77
2022/03/29 08:58:51;;;;;;;37.88;22.80;;;;;;;7.89;83.49;101573.09;5094534;28;20028;-78
2022/03/29 09:01:21;;;;;;;36.10;22.52;;;;;;;7.94;82.40;101579.78;5094291;28;20454;-78
2022/03/29 09:04:13;;;;;;;34.80;21.00;;;;;;;8.07;82.66;101578.94;5075809;28;20036;-78
2022/03/29 09:06:50;;;;;;;33.50;21.38;;;;;;;8.11;81.23;101581.28;5094328;28;20107;-77
2022/03/29 09:09:26;;;;;;;37.75;21.58;;;;;;;8.23;80.63;101584.06;5076562;28;20356;-77
2022/03/29 09:11:54;;;;;;;39.33;21.75;;;;;;;8.14;80.85;101584.69;5094782;28;20407;-77
2022/03/29 09:14:21;;;;;;;33.42;21.70;;;;;;;8.24;81.23;101578.63;5094271;28;20124;-77
2022/03/29 09:16:47;;;;;;;36.95;21.70;;;;;;;8.20;80.66;101584.25;5094256;28;20460;-77
2022/03/29 09:19:13;;;;;;;37.38;21.90;;;;;;;8.10;81.14;101586.69;5093937;28;20134;-77
2022/03/29 09:21:45;;;;;;;40.75;22.15;;;;;;;8.23;81.77;101586.69;5094340;28;20399;-77
2022/03/29 09:24:18;;;;;;;43.97;22.02;;;;;;;8.13;80.18;101583.81;5075618;28;20055;-79
2022/03/29 09:26:54;;;;;;;38.10;21.55;;;;;;;8.20;81.04;101578.97;5093569;28;20028;-79
2022/03/29 09:29:23;;;;;;;36.70;21.98;;;;;;;8.34;81.01;101578.84;5093661;28;20027;-78
2022/03/29 09:32:12;;;;;;;39.00;21.77;;;;;;;8.58;81.00;101567.50;5093466;28;20035;-78
2022/03/29 09:34:38;;;;;;;34.25;21.23;;;;;;;8.79;79.98;101573.09;5093473;28;20036;-78
2022/03/29 09:37:04;;;;;;;33.70;20.95;;;;;;;8.86;79.51;101563.75;5093522;28;20465;-78
2022/03/29 09:39:37;;;;;;;33.67;20.80;;;;;;;9.00;78.60;101568.91;5092680;28;20055;-78
2022/03/29 09:42:14;;;;;;;32.08;19.02;;;;;;;9.38;77.36;101561.75;5093229;28;20027;-78
2022/03/29 09:44:42;;;;;;;31.90;19.52;;;;;;;9.89;75.30;101561.44;5093894;28;20077;-78
2022/03/29 09:47:11;;;;;;;32.22;20.42;;;;;;;10.51;73.80;101563.84;5093506;28;20125;-78
2022/03/29 09:49:57;;;;;;;30.45;19.80;;;;;;;11.37;69.95;101554.25;5093023;28;20023;-79
2022/03/29 09:52:24;;;;;;;30.27;19.92;;;;;;;11.68;66.95;101556.19;5093352;28;20064;-78
2022/03/29 09:55:21;;;;;;;30.90;20.88;;;;;;;11.41;65.75;101554.84;5093585;28;20397;-78
2022/03/29 09:57:49;;;;;;;32.42;21.00;;;;;;;11.20;67.18;101563.63;5092999;28;20063;-78
2022/03/29 10:00:16;;;;;;;30.98;20.60;;;;;;;11.14;67.16;101557.94;5093167;28;20024;-78
2022/03/29 10:02:45;;;;;;;28.48;19.30;;;;;;;10.96;67.28;101554.97;5093707;28;20140;-78
2022/03/29 10:05:11;;;;;;;31.83;19.40;;;;;;;10.69;68.62;101549.09;5093205;28;20310;-78
2022/03/29 10:07:43;;;;;;;30.88;19.52;;;;;;;10.63;68.85;101544.25;5093094;28;20085;-78
2022/03/29 10:10:10;;;;;;;32.20;20.48;;;;;;;10.59;69.42;101540.97;5092825;28;20075;-78
2022/03/29 10:12:36;;;;;;;29.95;19.55;;;;;;;10.56;69.96;101541.22;5092668;28;20081;-78
2022/03/29 10:15:02;;;;;;;30.63;19.67;;;;;;;10.94;68.08;101536.44;5092566;28;20031;-78
2022/03/29 10:17:28;;;;;;;34.92;19.55;;;;;;;11.08;66.97;101541.50;5092714;28;20058;-78
2022/03/29 10:19:56;;;;;;;31.33;19.75;;;;;;;11.28;67.34;101531.03;5093151;28;20156;-78
2022/03/29 10:22:21;;;;;;;38.63;20.05;;;;;;;11.24;66.41;101545.56;5092970;28;20035;-78
2022/03/29 10:24:47;;;;;;;31.70;20.27;;;;;;;11.43;65.75;101532.41;5093133;28;20375;-77
2022/03/29 10:27:12;;;;;;;32.97;20.52;;;;;;;11.71;66.43;101535.44;5074298;28;20039;-78
2022/03/29 10:29:40;;;;;;;30.08;20.48;;;;;;;12.01;64.55;101531.19;5074684;28;20047;-77
2022/03/29 10:32:06;;;;;;;33.60;20.30;;;;;;;12.10;63.04;101533.03;5092909;28;20065;-78
2022/03/29 10:34:42;;;;;;;31.77;20.10;;;;;;;11.81;63.62;101538.19;5092678;28;20032;-78
2022/03/29 10:37:13;;;;;;;32.33;19.90;;;;;;;11.61;64.51;101529.19;5076391;28;20142;-79
2022/03/29 10:39:44;;;;;;;34.42;19.98;;;;;;;11.72;65.33;101529.16;5092658;28;20036;-78
2022/03/29 10:42:26;;;;;;;28.00;18.90;;;;;;;11.65;64.47;101528.81;5093228;28;20047;-77
2022/03/29 10:44:58;;;;;;;28.58;18.35;;;;;;;11.67;63.68;101533.16;5092528;28;20032;-78
2022/03/29 10:47:29;;;;;;;29.95;18.70;;;;;;;11.41;66.15;101530.88;5092737;28;20032;-78
2022/03/29 10:49:54;;;;;;;27.53;18.83;;;;;;;11.45;65.36;101519.00;5092880;28;20031;-80
2022/03/29 10:52:20;;;;;;;28.02;18.73;;;;;;;11.66;65.34;101521.69;5096318;28;20024;-81
2022/03/29 10:54:46;;;;;;;27.75;19.65;;;;;;;11.59;64.91;101518.66;5096503;28;20464;-79
2022/03/29 10:57:28;;;;;;;28.20;19.17;;;;;;;11.64;65.95;101515.59;5096910;28;20056;-77
2022/03/29 11:00:12;;;;;;;32.33;20.33;;;;;;;11.63;63.89;101517.44;5096953;28;20035;-77
2022/03/29 11:02:38;;;;;;;31.38;19.63;;;;;;;11.66;64.42;101505.69;5096371;28;20032;-78
2022/03/29 11:05:09;;;;;;;33.20;20.63;;;;;;;11.75;63.51;101502.22;5096387;28;20146;-77
2022/03/29 11:07:36;;;;;;;30.80;18.77;;;;;;;12.39;63.79;101500.34;5096633;28;20107;-77
2022/03/29 11:10:19;;;;;;;31.13;19.77;;;;;;;13.88;58.06;101494.00;5096634;28;20340;-76
2022/03/29 11:12:51;;;;;;;26.98;18.40;;;;;;;14.71;55.10;101495.06;5096586;28;20035;-75
2022/03/29 11:15:32;;;;;;;27.90;18.50;;;;;;;15.56;51.30;101492.84;5095896;28;20024;-80
2022/03/29 11:17:58;;;;;;;28.50;18.95;;;;;;;16.46;48.81;101492.56;5077442;28;20134;-80
2022/03/29 11:20:34;;;;;;;29.63;18.65;;;;;;;16.34;49.24;101483.94;5096553;28;20066;-78